createdAt,value
2022-09-17T00:02:58.020Z,98568.25
2022-09-17T00:08:00.885Z,98569.70
2022-09-17T00:13:04.784Z,98566.63
2022-09-17T00:18:07.697Z,98569.30
2022-09-17T00:23:12.153Z,98570.27
2022-09-17T00:28:15.392Z,98574.92
2022-09-17T00:33:20.286Z,98579.15
2022-09-17T00:38:22.981Z,98580.46
2022-09-17T00:43:38.444Z,98578.11
2022-09-17T00:48:41.201Z,98585.51
2022-09-17T00:53:44.204Z,98592.33
2022-09-17T00:58:47.087Z,98592.24
2022-09-17T01:03:50.489Z,98582.22
2022-09-17T01:09:14.271Z,98581.37
2022-09-17T01:14:19.712Z,98586.87
2022-09-17T01:19:29.693Z,98586.20
2022-09-17T01:24:48.105Z,98585.79
2022-09-17T01:30:19.450Z,98588.32
2022-09-17T01:35:31.368Z,98593.15
2022-09-17T01:40:41.558Z,98588.34
2022-09-17T01:45:53.213Z,98584.70
2022-09-17T01:51:06.444Z,98588.18
2022-09-17T01:56:14.687Z,98585.18
2022-09-17T02:01:22.884Z,98582.20
2022-09-17T02:06:31.210Z,98577.84
2022-09-17T02:11:41.481Z,98579.27
2022-09-17T02:16:50.445Z,98580.29
2022-09-17T02:22:14.213Z,98577.91
2022-09-17T02:27:23.654Z,98582.64
2022-09-17T02:32:27.170Z,98585.79
2022-09-17T02:37:30.228Z,98586.15
2022-09-17T02:43:15.960Z,98587.02
2022-09-17T02:48:43.183Z,98589.53
2022-09-17T02:54:16.733Z,98587.63
2022-09-17T02:59:25.054Z,98591.86
2022-09-17T03:04:29.754Z,98593.98
2022-09-17T03:09:34.250Z,98598.92
2022-09-17T03:14:37.291Z,98596.62
2022-09-17T03:19:40.000Z,98589.99
2022-09-17T03:24:42.743Z,98585.96
2022-09-17T03:29:45.500Z,98587.65
2022-09-17T03:34:48.212Z,98586.36
2022-09-17T03:39:51.034Z,98583.60
2022-09-17T03:44:53.761Z,98581.36
2022-09-17T03:49:56.725Z,98573.49
2022-09-17T03:54:59.434Z,98579.41
2022-09-17T04:00:02.262Z,98578.32
2022-09-17T04:05:06.117Z,98576.86
2022-09-17T04:10:09.438Z,98578.96
2022-09-17T04:15:12.163Z,98574.53
2022-09-17T04:20:14.973Z,98565.69
2022-09-17T04:25:18.460Z,98561.86
2022-09-17T04:30:21.241Z,98566.83
2022-09-17T04:35:24.030Z,98556.16
2022-09-17T04:40:28.138Z,98558.32
2022-09-17T04:45:33.495Z,98566.80
2022-09-17T04:50:36.435Z,98572.84
2022-09-17T04:55:39.353Z,98578.14
2022-09-17T05:00:42.604Z,98584.22
2022-09-17T05:05:45.465Z,98598.66
2022-09-17T05:10:50.390Z,98603.79
2022-09-17T05:15:56.746Z,98606.05
2022-09-17T05:20:59.623Z,98608.90
2022-09-17T05:26:02.686Z,98609.34
2022-09-17T05:31:06.013Z,98614.15
2022-09-17T05:36:09.025Z,98613.23
2022-09-17T05:41:11.717Z,98619.93
2022-09-17T05:46:14.520Z,98626.86
2022-09-17T05:51:18.982Z,98631.14
2022-09-17T05:56:22.089Z,98631.40
2022-09-17T06:01:25.041Z,98635.67
2022-09-17T06:06:29.827Z,98642.27
2022-09-17T06:11:32.622Z,98641.01
2022-09-17T06:16:35.764Z,98650.64
2022-09-17T06:21:38.494Z,98648.75
2022-09-17T06:26:41.336Z,98656.36
2022-09-17T06:31:45.021Z,98659.75
2022-09-17T06:36:49.286Z,98660.61
2022-09-17T06:41:52.304Z,98657.79
2022-09-17T06:46:55.038Z,98652.90
2022-09-17T06:51:57.920Z,98651.93
2022-09-17T06:57:01.009Z,98654.92
2022-09-17T07:02:05.698Z,98655.92
2022-09-17T07:07:09.856Z,98664.76
2022-09-17T07:12:12.589Z,98669.96
2022-09-17T07:17:16.342Z,98675.01
2022-09-17T07:22:19.406Z,98667.88
2022-09-17T07:27:22.200Z,98665.77
2022-09-17T07:32:25.862Z,98672.30
2022-09-17T07:37:28.599Z,98674.33
2022-09-17T07:42:32.637Z,98686.33
2022-09-17T07:47:40.676Z,98691.91
2022-09-17T07:52:49.621Z,98697.86
2022-09-17T07:57:53.109Z,98699.64
2022-09-17T08:02:57.148Z,98700.39
2022-09-17T08:08:00.559Z,98711.36
2022-09-17T08:13:03.332Z,98707.81
2022-09-17T08:18:06.048Z,98713.98
2022-09-17T08:23:08.803Z,98692.52
2022-09-17T08:28:11.501Z,98690.69
2022-09-17T08:33:14.606Z,98682.08
2022-09-17T08:38:17.308Z,98685.89
2022-09-17T08:43:20.191Z,98684.02
2022-09-17T08:48:25.848Z,98695.80
2022-09-17T08:53:38.618Z,98704.51
2022-09-17T08:58:54.752Z,98710.15
2022-09-17T09:04:20.602Z,98713.30
2022-09-17T09:09:25.539Z,98712.95
2022-09-17T09:14:36.336Z,98715.20
2022-09-17T09:19:44.527Z,98718.33
2022-09-17T09:25:23.406Z,98718.94
2022-09-17T09:30:37.287Z,98725.98
2022-09-17T09:35:43.713Z,98721.05
2022-09-17T09:41:03.313Z,98727.04
2022-09-17T09:46:43.901Z,98724.05
2022-09-17T09:51:58.858Z,98720.10
2022-09-17T09:57:15.474Z,98721.74
2022-09-17T10:02:18.362Z,98724.29
2022-09-17T10:07:21.361Z,98731.80
2022-09-17T10:12:24.157Z,98727.84
2022-09-17T10:17:28.137Z,98736.71
2022-09-17T10:22:40.891Z,98745.92
2022-09-17T10:27:46.200Z,98750.67
2022-09-17T10:33:21.185Z,98747.38
2022-09-17T10:38:42.234Z,98742.16
2022-09-17T10:43:46.283Z,98738.08
2022-09-17T10:48:57.509Z,98743.61
2022-09-17T10:54:17.941Z,98747.34
2022-09-17T10:59:54.826Z,98750.91
2022-09-17T11:05:24.864Z,98753.71
2022-09-17T11:10:54.209Z,98751.52
2022-09-17T11:16:11.766Z,98756.19
2022-09-17T11:21:26.453Z,98761.33
2022-09-17T11:26:42.383Z,98766.78
2022-09-17T11:32:21.588Z,98770.60
2022-09-17T11:37:33.150Z,98774.46
2022-09-17T11:42:48.172Z,98782.48
2022-09-17T11:48:14.115Z,98786.00
2022-09-17T11:53:28.822Z,98798.92
2022-09-17T11:58:49.931Z,98802.19
2022-09-17T12:04:15.993Z,98795.52
2022-09-17T12:09:26.111Z,98795.79
2022-09-17T12:14:46.649Z,98788.11
2022-09-17T12:20:02.183Z,98784.41
2022-09-17T12:25:06.764Z,98769.66
2022-09-17T12:30:22.816Z,98770.02
2022-09-17T12:36:05.605Z,98764.75
2022-09-17T12:41:39.089Z,98758.42
2022-09-17T12:47:08.497Z,98744.02
2022-09-17T12:52:13.938Z,98735.55
2022-09-17T12:57:19.709Z,98737.79
2022-09-17T13:02:46.700Z,98738.30
2022-09-17T13:08:16.322Z,98728.95
2022-09-17T13:13:56.128Z,98725.42
2022-09-17T13:19:16.042Z,98748.27
2022-09-17T13:24:27.279Z,98766.69
2022-09-17T13:29:45.483Z,98759.36
2022-09-17T13:34:48.209Z,98752.67
2022-09-17T13:39:51.773Z,98766.16
2022-09-17T13:45:16.366Z,98769.14
2022-09-17T13:50:36.706Z,98772.43
2022-09-17T13:55:40.725Z,98775.48
2022-09-17T14:00:49.987Z,98770.83
2022-09-17T14:05:53.469Z,98761.10
2022-09-17T14:10:59.120Z,98769.00
2022-09-17T14:16:03.389Z,98767.61
2022-09-17T14:21:09.333Z,98774.33
2022-09-17T14:26:28.977Z,98804.55
2022-09-17T14:31:36.331Z,98805.23
2022-09-17T14:36:39.473Z,98801.38
2022-09-17T14:41:44.245Z,98801.11
2022-09-17T14:46:57.074Z,98803.05
2022-09-17T14:52:02.060Z,98799.61
2022-09-17T14:57:28.581Z,98803.52
2022-09-17T15:02:41.460Z,98806.45
2022-09-17T15:07:46.146Z,98794.15
2022-09-17T15:12:50.674Z,98784.64
2022-09-17T15:17:54.737Z,98775.32
2022-09-17T15:23:23.279Z,98766.58
2022-09-17T15:28:29.949Z,98767.70
2022-09-17T15:33:34.225Z,98767.88
2022-09-17T15:38:39.287Z,98774.09
2022-09-17T15:43:44.022Z,98778.15
2022-09-17T15:48:46.911Z,98775.11
2022-09-17T15:53:55.659Z,98766.75
2022-09-17T15:59:26.451Z,98761.30
2022-09-17T16:04:33.775Z,98763.38
2022-09-17T16:09:39.476Z,98763.36
2022-09-17T16:14:50.895Z,98761.22
2022-09-17T16:19:55.962Z,98766.19
2022-09-17T16:24:59.999Z,98763.95
2022-09-17T16:30:09.465Z,98759.48
2022-09-17T16:35:17.634Z,98761.17
2022-09-17T16:40:22.728Z,98761.49
2022-09-17T16:45:29.014Z,98756.66
2022-09-17T16:50:33.926Z,98757.98
2022-09-17T16:55:37.717Z,98769.17
2022-09-17T17:00:43.933Z,98776.62
2022-09-17T17:05:47.573Z,98781.93
2022-09-17T17:10:50.489Z,98783.16
2022-09-17T17:15:53.351Z,98792.14
2022-09-17T17:20:56.200Z,98802.77
2022-09-17T17:25:59.081Z,98804.61
2022-09-17T17:31:03.434Z,98812.58
2022-09-17T17:36:08.513Z,98820.71
2022-09-17T17:41:18.132Z,98831.72
2022-09-17T17:46:21.678Z,98825.23
2022-09-17T17:51:25.442Z,98826.54
2022-09-17T17:56:28.210Z,98830.94
2022-09-17T18:01:35.126Z,98840.77
2022-09-17T18:06:43.832Z,98850.30
2022-09-17T18:11:51.182Z,98855.69
2022-09-17T18:16:54.252Z,98857.07
2022-09-17T18:21:57.170Z,98850.04
2022-09-17T18:27:00.015Z,98848.71
2022-09-17T18:32:03.265Z,98848.11
2022-09-17T18:37:06.129Z,98847.95
2022-09-17T18:42:09.817Z,98847.00
2022-09-17T18:47:13.119Z,98845.65
2022-09-17T18:52:16.035Z,98848.41
2022-09-17T18:57:18.764Z,98842.71
2022-09-17T19:02:21.578Z,98852.89
2022-09-17T19:07:24.519Z,98851.92
2022-09-17T19:12:27.343Z,98840.14
2022-09-17T19:17:30.192Z,98835.85
2022-09-17T19:22:33.179Z,98834.69
2022-09-17T19:27:35.889Z,98828.23
2022-09-17T19:32:43.032Z,98830.77
2022-09-17T19:37:46.147Z,98829.04
2022-09-17T19:42:54.509Z,98819.29
2022-09-17T19:48:01.783Z,98816.98
2022-09-17T19:53:04.748Z,98815.55
2022-09-17T19:58:07.629Z,98816.92
2022-09-17T20:03:12.302Z,98821.05
2022-09-17T20:08:15.165Z,98826.70
2022-09-17T20:13:18.692Z,98835.31
2022-09-17T20:18:23.626Z,98848.58
2022-09-17T20:23:31.800Z,98853.65
2022-09-17T20:28:35.050Z,98855.29
2022-09-17T20:33:39.173Z,98846.36
2022-09-17T20:44:07.380Z,98853.90
2022-09-17T20:49:10.255Z,98852.52
2022-09-17T20:54:13.454Z,98854.07
2022-09-17T20:59:18.796Z,98846.69
2022-09-17T21:04:24.159Z,98842.48
2022-09-17T21:09:27.295Z,98839.27
2022-09-17T21:14:30.874Z,98846.93
2022-09-17T21:19:33.631Z,98853.05
2022-09-17T21:24:36.350Z,98851.11
2022-09-17T21:29:39.090Z,98846.83
2022-09-17T21:34:41.928Z,98849.53
2022-09-17T21:39:46.042Z,98850.57
2022-09-17T21:44:48.823Z,98847.55
2022-09-17T21:49:51.920Z,98851.68
2022-09-17T21:54:54.658Z,98846.18
2022-09-17T21:59:57.404Z,98845.26
2022-09-17T22:05:00.194Z,98844.77
2022-09-17T22:10:03.030Z,98846.70
2022-09-17T22:15:06.197Z,98845.63
2022-09-17T22:20:12.156Z,98844.91
2022-09-17T22:25:14.980Z,98839.48
2022-09-17T22:30:17.767Z,98834.73
2022-09-17T22:35:20.493Z,98830.54
2022-09-17T22:40:23.422Z,98829.35
2022-09-17T22:45:28.055Z,98825.31
2022-09-17T22:50:30.739Z,98821.40
2022-09-17T22:55:34.110Z,98813.06
2022-09-17T23:00:37.404Z,98807.87
2022-09-17T23:05:40.109Z,98805.85
2022-09-17T23:10:43.703Z,98808.20
2022-09-17T23:15:46.725Z,98811.21
2022-09-17T23:21:08.239Z,98812.09
2022-09-17T23:26:18.054Z,98807.34
2022-09-17T23:31:26.561Z,98811.61
2022-09-17T23:36:32.463Z,98814.00
2022-09-17T23:41:38.192Z,98811.08
2022-09-17T23:46:41.480Z,98805.38
2022-09-17T23:51:44.915Z,98803.42
2022-09-17T23:56:47.700Z,98804.79
